createdAt,value
2022-11-14T00:04:30.681Z,2.06
2022-11-14T00:09:51.567Z,1.92
2022-11-14T00:15:13.220Z,1.76
2022-11-14T00:20:34.177Z,1.70
2022-11-14T00:25:54.657Z,1.72
2022-11-14T00:31:15.605Z,1.40
2022-11-14T00:36:37.024Z,1.38
2022-11-14T00:41:58.010Z,1.48
2022-11-14T00:47:18.592Z,1.37
2022-11-14T00:52:39.467Z,1.42
2022-11-14T00:58:00.163Z,1.20
2022-11-14T01:03:21.071Z,1.13
2022-11-14T01:08:42.451Z,1.10
2022-11-14T01:14:06.910Z,1.13
2022-11-14T01:19:27.872Z,1.27
2022-11-14T01:24:48.572Z,1.15
2022-11-14T01:30:10.049Z,0.88
2022-11-14T01:35:31.965Z,1.06
2022-11-14T01:40:52.967Z,1.11
2022-11-14T01:46:20.120Z,0.99
2022-11-14T01:51:51.680Z,1.01
2022-11-14T01:57:15.340Z,0.94
2022-11-14T02:02:36.153Z,0.88
2022-11-14T02:07:57.446Z,1.01
2022-11-14T02:13:18.170Z,1.07
2022-11-14T02:18:39.004Z,1.08
2022-11-14T02:24:00.054Z,1.11
2022-11-14T02:29:21.378Z,0.94
2022-11-14T02:34:42.512Z,1.02
2022-11-14T02:40:03.213Z,0.88
2022-11-14T02:45:24.257Z,0.60
2022-11-14T02:50:45.047Z,0.52
2022-11-14T02:56:05.905Z,0.68
2022-11-14T03:01:26.750Z,0.82
2022-11-14T03:06:47.422Z,0.79
2022-11-14T03:12:09.076Z,0.69
2022-11-14T03:17:34.127Z,0.76
2022-11-14T03:22:54.835Z,0.69
2022-11-14T03:28:15.607Z,0.70
2022-11-14T03:33:36.716Z,0.89
2022-11-14T03:39:00.019Z,0.73
2022-11-14T03:44:20.568Z,0.56
2022-11-14T03:49:41.542Z,0.60
2022-11-14T03:55:02.180Z,0.74
2022-11-14T04:00:23.260Z,0.80
2022-11-14T04:05:45.814Z,0.80
2022-11-14T04:11:06.494Z,0.50
2022-11-14T04:16:27.422Z,0.62
2022-11-14T04:21:48.251Z,0.66
2022-11-14T04:27:08.748Z,0.72
2022-11-14T04:32:30.614Z,0.63
2022-11-14T04:37:51.463Z,0.42
2022-11-14T04:43:12.497Z,0.47
2022-11-14T04:48:33.497Z,0.54
2022-11-14T04:53:54.334Z,0.42
2022-11-14T04:59:20.522Z,0.32
2022-11-14T05:04:59.549Z,0.49
2022-11-14T05:10:21.548Z,0.63
2022-11-14T05:15:42.309Z,0.43
2022-11-14T05:21:03.287Z,0.40
2022-11-14T05:26:23.831Z,0.48
2022-11-14T05:31:44.689Z,0.64
2022-11-14T05:37:05.317Z,0.95
2022-11-14T05:42:29.981Z,1.08
2022-11-14T05:47:54.192Z,1.23
2022-11-14T05:53:14.795Z,1.33
2022-11-14T05:58:36.797Z,1.64
2022-11-14T06:03:57.676Z,1.75
2022-11-14T06:09:18.790Z,1.98
2022-11-14T06:14:39.451Z,2.00
2022-11-14T06:20:00.419Z,2.17
2022-11-14T06:25:21.036Z,2.30
2022-11-14T06:30:41.953Z,2.22
2022-11-14T06:36:05.336Z,2.45
2022-11-14T06:41:26.337Z,2.73
2022-11-14T06:46:47.160Z,3.14
2022-11-14T06:52:07.778Z,3.32
2022-11-14T06:57:28.693Z,3.70
2022-11-14T07:02:49.756Z,4.91
2022-11-14T07:08:10.332Z,9.20
2022-11-14T07:13:31.727Z,12.38
2022-11-14T07:18:52.822Z,14.90
2022-11-14T07:24:13.716Z,16.27
2022-11-14T07:29:34.288Z,16.43
2022-11-14T07:35:00.802Z,17.10
2022-11-14T07:40:22.715Z,17.70
2022-11-14T07:45:43.606Z,16.05
2022-11-14T07:51:06.077Z,16.29
2022-11-14T07:56:26.981Z,17.65
2022-11-14T08:01:47.600Z,18.07
2022-11-14T08:07:09.551Z,17.17
2022-11-14T08:12:30.157Z,16.33
2022-11-14T08:17:50.949Z,16.12
2022-11-14T08:23:16.159Z,15.67
2022-11-14T08:28:37.039Z,14.32
2022-11-14T08:33:57.749Z,14.95
2022-11-14T08:39:18.743Z,15.35
2022-11-14T08:44:39.685Z,15.79
2022-11-14T08:50:00.433Z,16.33
2022-11-14T08:55:21.319Z,17.54
2022-11-14T09:00:42.252Z,18.19
2022-11-14T09:06:03.695Z,18.40
2022-11-14T09:11:24.348Z,19.32
2022-11-14T09:16:47.756Z,20.33
2022-11-14T09:22:08.503Z,21.37
2022-11-14T09:27:29.103Z,21.65
2022-11-14T09:32:50.253Z,20.96
2022-11-14T09:38:11.964Z,21.70
2022-11-14T09:44:00.673Z,21.92
2022-11-14T09:49:27.437Z,21.48
2022-11-14T09:54:55.500Z,21.98
2022-11-14T10:00:19.506Z,22.55
2022-11-14T10:06:28.522Z,22.76
2022-11-14T10:12:06.046Z,22.82
2022-11-14T10:17:55.366Z,23.15
2022-11-14T10:23:19.023Z,23.03
2022-11-14T10:29:14.774Z,22.39
2022-11-14T10:34:45.858Z,21.41
2022-11-14T10:40:15.998Z,20.92
2022-11-14T10:45:47.797Z,19.70
2022-11-14T10:51:27.344Z,18.92
2022-11-14T10:56:55.570Z,18.73
2022-11-14T11:02:16.573Z,18.34
2022-11-14T11:08:28.374Z,17.37
2022-11-14T11:13:56.057Z,17.40
2022-11-14T11:19:18.985Z,17.69
2022-11-14T11:24:39.918Z,17.49
2022-11-14T11:30:39.867Z,16.34
2022-11-14T11:36:30.246Z,14.88
2022-11-14T11:53:55.538Z,14.63
2022-11-14T11:59:38.367Z,14.53
2022-11-14T12:05:01.236Z,14.19
2022-11-14T12:10:27.794Z,13.46
2022-11-14T12:16:17.751Z,13.58
2022-11-14T12:21:55.590Z,13.55
2022-11-14T12:27:36.235Z,13.43
2022-11-14T12:33:29.659Z,13.47
2022-11-14T12:38:55.151Z,13.20
2022-11-14T12:44:28.374Z,13.05
2022-11-14T12:49:52.938Z,12.59
2022-11-14T12:55:26.064Z,12.15
2022-11-14T13:00:47.120Z,12.14
2022-11-14T13:06:25.261Z,11.85
2022-11-14T13:12:06.897Z,11.44
2022-11-14T13:17:49.932Z,11.40
2022-11-14T13:23:26.400Z,11.73
2022-11-14T13:28:52.607Z,11.33
2022-11-14T13:34:38.182Z,11.68
2022-11-14T13:40:07.694Z,11.75
2022-11-14T13:46:07.658Z,11.18
2022-11-14T13:51:43.034Z,11.33
2022-11-14T13:57:23.176Z,11.36
2022-11-14T14:03:03.428Z,11.23
2022-11-14T14:08:59.565Z,10.91
2022-11-14T14:14:47.737Z,10.49
2022-11-14T14:20:32.333Z,10.32
2022-11-14T14:26:11.354Z,9.88
2022-11-14T14:31:40.751Z,9.47
2022-11-14T14:37:01.507Z,9.22
2022-11-14T14:42:22.801Z,9.08
2022-11-14T14:47:47.549Z,9.08
2022-11-14T14:53:19.001Z,9.17
2022-11-14T14:58:40.175Z,9.18
2022-11-14T15:04:09.499Z,9.06
2022-11-14T15:09:30.309Z,9.09
2022-11-14T15:14:53.303Z,9.55
2022-11-14T15:20:30.521Z,9.58
2022-11-14T15:26:03.234Z,9.17
2022-11-14T15:31:24.744Z,8.86
2022-11-14T15:37:10.306Z,8.70
2022-11-14T15:42:31.704Z,8.30
2022-11-14T15:48:05.352Z,8.73
2022-11-14T15:53:30.595Z,8.65
2022-11-14T15:58:51.825Z,8.38
2022-11-14T16:04:20.212Z,8.44
2022-11-14T16:09:41.519Z,8.44
2022-11-14T16:15:02.184Z,8.42
2022-11-14T16:20:29.178Z,8.40
2022-11-14T16:31:38.169Z,8.58
2022-11-14T16:37:01.204Z,8.38
2022-11-14T16:42:21.989Z,8.72
2022-11-14T16:47:46.489Z,8.22
2022-11-14T16:53:07.667Z,8.48
2022-11-14T16:58:28.665Z,8.31
2022-11-14T17:03:49.259Z,8.14
2022-11-14T17:09:14.985Z,8.37
2022-11-14T17:14:35.899Z,8.21
2022-11-14T17:19:56.789Z,8.33
2022-11-14T17:25:18.364Z,8.19
2022-11-14T17:30:42.607Z,8.39
2022-11-14T17:36:08.594Z,8.02
2022-11-14T17:41:30.419Z,8.27
2022-11-14T17:46:51.154Z,8.07
2022-11-14T17:52:12.298Z,8.27
2022-11-14T17:57:33.415Z,8.35
2022-11-14T18:02:54.101Z,8.33
2022-11-14T18:08:15.002Z,8.09
2022-11-14T18:13:38.260Z,8.03
2022-11-14T18:18:59.382Z,7.96
2022-11-14T18:24:21.370Z,7.98
2022-11-14T18:29:42.285Z,7.90
2022-11-14T18:35:03.610Z,7.84
2022-11-14T18:40:24.518Z,7.85
2022-11-14T18:45:45.265Z,7.97
2022-11-14T18:51:08.739Z,8.00
2022-11-14T18:56:29.813Z,7.83
2022-11-14T19:01:51.048Z,7.69
2022-11-14T19:07:16.067Z,7.81
2022-11-14T19:12:37.250Z,7.80
2022-11-14T19:17:58.600Z,7.77
2022-11-14T19:23:19.584Z,7.70
2022-11-14T19:28:40.636Z,7.76
2022-11-14T19:34:02.056Z,7.91
2022-11-14T19:39:23.360Z,8.05
2022-11-14T19:44:44.485Z,7.91
2022-11-14T19:50:05.561Z,8.01
2022-11-14T19:55:26.641Z,7.93
2022-11-14T20:00:47.549Z,7.80
2022-11-14T20:06:18.206Z,7.86
2022-11-14T20:11:39.506Z,7.84
2022-11-14T20:17:00.325Z,7.68
2022-11-14T20:22:21.399Z,7.78
2022-11-14T20:27:42.347Z,7.79
2022-11-14T20:33:03.463Z,8.02
2022-11-14T20:38:24.388Z,7.44
2022-11-14T20:43:45.620Z,7.36
2022-11-14T20:49:09.363Z,7.72
2022-11-14T20:54:30.266Z,7.70
2022-11-14T20:59:51.897Z,7.65
2022-11-14T21:05:12.628Z,7.77
2022-11-14T21:10:47.343Z,7.76
2022-11-14T21:16:10.785Z,7.69
2022-11-14T21:21:35.013Z,7.65
2022-11-14T21:26:55.982Z,7.75
2022-11-14T21:32:17.035Z,7.78
2022-11-14T21:37:38.296Z,7.85
2022-11-14T21:42:59.158Z,7.67
2022-11-14T21:48:20.317Z,7.73
2022-11-14T21:53:42.991Z,7.85
2022-11-14T21:59:13.217Z,7.45
2022-11-14T22:04:35.102Z,7.33
2022-11-14T22:09:56.144Z,7.42
2022-11-14T22:15:17.022Z,7.56
2022-11-14T22:20:38.160Z,7.75
2022-11-14T22:26:01.051Z,7.66
2022-11-14T22:31:23.748Z,7.55
2022-11-14T22:36:44.629Z,7.37
2022-11-14T22:42:05.776Z,7.54
2022-11-14T22:47:26.519Z,7.67
2022-11-14T22:52:47.388Z,7.57
2022-11-14T22:58:08.512Z,7.68
2022-11-14T23:03:29.514Z,7.61
2022-11-14T23:08:51.065Z,7.69
2022-11-14T23:14:14.550Z,7.63
2022-11-14T23:19:35.254Z,7.74
2022-11-14T23:24:56.268Z,7.39
2022-11-14T23:30:17.423Z,7.44
2022-11-14T23:35:38.531Z,7.58
2022-11-14T23:41:22.195Z,7.51
2022-11-14T23:46:43.068Z,7.57
2022-11-14T23:52:04.148Z,7.65
2022-11-14T23:57:24.802Z,7.31
